createdAt,value
2022-10-01T00:00:55.267Z,100.00
2022-10-01T00:03:25.301Z,100.00
2022-10-01T00:06:00.159Z,100.00
2022-10-01T00:08:27.853Z,100.00
2022-10-01T00:10:54.341Z,100.00
2022-10-01T00:13:20.825Z,100.00
2022-10-01T00:15:47.869Z,100.00
2022-10-01T00:18:14.399Z,100.00
2022-10-01T00:20:43.413Z,100.00
2022-10-01T00:23:14.350Z,100.00
2022-10-01T00:25:41.463Z,100.00
2022-10-01T00:28:08.111Z,100.00
2022-10-01T00:30:39.585Z,100.00
2022-10-01T00:33:06.743Z,100.00
2022-10-01T00:35:33.192Z,100.00
2022-10-01T00:37:59.664Z,100.00
2022-10-01T00:40:26.063Z,100.00
2022-10-01T00:42:52.487Z,100.00
2022-10-01T00:45:18.968Z,100.00
2022-10-01T00:47:55.528Z,100.00
2022-10-01T00:50:49.792Z,100.00
2022-10-01T00:53:19.387Z,100.00
2022-10-01T00:55:51.899Z,100.00
2022-10-01T00:58:19.116Z,100.00
2022-10-01T01:00:46.222Z,100.00
2022-10-01T01:03:13.211Z,100.00
2022-10-01T01:05:39.805Z,100.00
2022-10-01T01:08:08.271Z,100.00
2022-10-01T01:10:41.942Z,100.00
2022-10-01T01:13:17.786Z,100.00
2022-10-01T01:16:06.043Z,100.00
2022-10-01T01:18:43.310Z,100.00
2022-10-01T01:21:38.559Z,100.00
2022-10-01T01:24:29.940Z,100.00
2022-10-01T01:27:18.135Z,100.00
2022-10-01T01:29:44.407Z,100.00
2022-10-01T01:32:34.159Z,100.00
2022-10-01T01:35:04.100Z,100.00
2022-10-01T01:37:37.958Z,100.00
2022-10-01T01:40:10.137Z,100.00
2022-10-01T01:42:40.169Z,100.00
2022-10-01T01:45:11.586Z,100.00
2022-10-01T01:47:41.386Z,100.00
2022-10-01T01:50:08.864Z,100.00
2022-10-01T01:52:35.616Z,100.00
2022-10-01T01:55:07.341Z,100.00
2022-10-01T01:57:39.093Z,100.00
2022-10-01T02:00:06.095Z,100.00
2022-10-01T02:02:35.228Z,100.00
2022-10-01T02:05:08.707Z,100.00
2022-10-01T02:07:53.256Z,100.00
2022-10-01T02:10:22.707Z,100.00
2022-10-01T02:13:03.858Z,100.00
2022-10-01T02:15:48.857Z,100.00
2022-10-01T02:18:23.800Z,100.00
2022-10-01T02:21:00.875Z,100.00
2022-10-01T02:23:37.745Z,100.00
2022-10-01T02:26:10.893Z,100.00
2022-10-01T02:28:41.123Z,100.00
2022-10-01T02:31:10.287Z,100.00
2022-10-01T02:33:37.929Z,100.00
2022-10-01T02:36:07.798Z,100.00
2022-10-01T02:38:38.388Z,100.00
2022-10-01T02:41:08.288Z,100.00
2022-10-01T02:43:42.899Z,100.00
2022-10-01T02:46:42.948Z,100.00
2022-10-01T02:49:10.366Z,100.00
2022-10-01T02:51:58.274Z,100.00
2022-10-01T02:54:31.076Z,100.00
2022-10-01T02:57:16.701Z,100.00
2022-10-01T02:59:43.107Z,100.00
2022-10-01T03:02:10.014Z,100.00
2022-10-01T03:04:36.644Z,100.00
2022-10-01T03:07:04.450Z,100.00
2022-10-01T03:09:32.301Z,100.00
2022-10-01T03:11:59.453Z,100.00
2022-10-01T03:14:25.914Z,100.00
2022-10-01T03:16:52.662Z,100.00
2022-10-01T03:19:19.275Z,100.00
2022-10-01T03:21:46.012Z,100.00
2022-10-01T03:24:12.410Z,100.00
2022-10-01T03:26:38.983Z,100.00
2022-10-01T03:29:06.202Z,100.00
2022-10-01T03:31:33.314Z,100.00
2022-10-01T03:34:00.774Z,100.00
2022-10-01T03:36:27.814Z,100.00
2022-10-01T03:38:54.337Z,100.00
2022-10-01T03:41:20.955Z,100.00
2022-10-01T03:43:47.396Z,100.00
2022-10-01T03:46:14.394Z,100.00
2022-10-01T03:48:41.128Z,100.00
2022-10-01T03:51:07.566Z,100.00
2022-10-01T03:53:33.978Z,100.00
2022-10-01T03:56:00.893Z,100.00
2022-10-01T03:58:27.535Z,100.00
2022-10-01T04:00:55.139Z,100.00
2022-10-01T04:03:21.978Z,100.00
2022-10-01T04:05:48.579Z,100.00
2022-10-01T04:08:15.779Z,100.00
2022-10-01T04:10:42.376Z,100.00
2022-10-01T04:13:09.341Z,100.00
2022-10-01T04:15:35.810Z,100.00
2022-10-01T04:18:05.495Z,100.00
2022-10-01T04:20:36.540Z,100.00
2022-10-01T04:23:04.133Z,100.00
2022-10-01T04:25:31.126Z,100.00
2022-10-01T04:28:03.289Z,100.00
2022-10-01T04:30:32.595Z,100.00
2022-10-01T04:32:59.482Z,100.00
2022-10-01T04:35:26.722Z,100.00
2022-10-01T04:38:03.319Z,100.00
2022-10-01T04:40:34.475Z,100.00
2022-10-01T04:43:02.126Z,100.00
2022-10-01T04:45:28.551Z,100.00
2022-10-01T04:47:55.866Z,100.00
2022-10-01T04:50:24.345Z,100.00
2022-10-01T04:52:51.612Z,100.00
2022-10-01T04:55:19.915Z,100.00
2022-10-01T04:57:46.348Z,100.00
2022-10-01T05:00:15.940Z,100.00
2022-10-01T05:02:49.670Z,100.00
2022-10-01T05:05:17.951Z,100.00
2022-10-01T05:07:44.650Z,100.00
2022-10-01T05:10:17.416Z,100.00
2022-10-01T05:12:44.244Z,100.00
2022-10-01T05:15:11.070Z,100.00
2022-10-01T05:17:37.482Z,100.00
2022-10-01T05:20:06.593Z,100.00
2022-10-01T05:22:33.688Z,100.00
2022-10-01T05:25:00.336Z,100.00
2022-10-01T05:27:27.582Z,100.00
2022-10-01T05:29:54.233Z,100.00
2022-10-01T05:32:20.641Z,100.00
2022-10-01T05:34:49.987Z,100.00
2022-10-01T05:37:19.793Z,100.00
2022-10-01T05:39:46.279Z,100.00
2022-10-01T05:42:12.689Z,100.00
2022-10-01T05:44:40.724Z,100.00
2022-10-01T05:47:07.688Z,100.00
2022-10-01T05:49:34.148Z,100.00
2022-10-01T05:52:00.959Z,100.00
2022-10-01T05:54:29.285Z,100.00
2022-10-01T05:56:56.567Z,100.00
2022-10-01T05:59:22.995Z,100.00
2022-10-01T06:01:49.544Z,100.00
2022-10-01T06:04:16.123Z,100.00
2022-10-01T06:06:42.513Z,100.00
2022-10-01T06:09:08.918Z,100.00
2022-10-01T06:11:38.807Z,100.00
2022-10-01T06:14:06.516Z,100.00
2022-10-01T06:16:33.056Z,100.00
2022-10-01T06:18:59.615Z,100.00
2022-10-01T06:21:26.899Z,100.00
2022-10-01T06:23:54.059Z,100.00
2022-10-01T06:26:20.856Z,100.00
2022-10-01T06:28:51.467Z,100.00
2022-10-01T06:31:19.306Z,100.00
2022-10-01T06:33:45.795Z,100.00
2022-10-01T06:36:12.206Z,100.00
2022-10-01T06:38:38.623Z,100.00
2022-10-01T06:41:05.325Z,100.00
2022-10-01T06:43:33.100Z,100.00
2022-10-01T06:46:04.890Z,100.00
2022-10-01T06:48:32.369Z,100.00
2022-10-01T06:50:59.263Z,100.00
2022-10-01T06:53:27.469Z,100.00
2022-10-01T06:55:54.040Z,100.00
2022-10-01T06:58:22.296Z,100.00
2022-10-01T07:00:49.842Z,100.00
2022-10-01T07:03:21.542Z,100.00
2022-10-01T07:05:50.340Z,100.00
2022-10-01T07:08:17.801Z,100.00
2022-10-01T07:10:44.518Z,100.00
2022-10-01T07:13:20.449Z,100.00
2022-10-01T07:15:46.957Z,100.00
2022-10-01T07:18:14.086Z,100.00
2022-10-01T07:20:41.170Z,100.00
2022-10-01T07:23:15.237Z,100.00
2022-10-01T07:25:43.220Z,100.00
2022-10-01T07:28:16.453Z,100.00
2022-10-01T07:30:47.399Z,100.00
2022-10-01T07:33:22.712Z,100.00
2022-10-01T07:35:49.277Z,100.00
2022-10-01T07:38:15.694Z,100.00
2022-10-01T07:40:42.407Z,100.00
2022-10-01T07:43:09.155Z,100.00
2022-10-01T07:45:35.741Z,100.00
2022-10-01T07:48:03.195Z,100.00
2022-10-01T07:50:32.802Z,100.00
2022-10-01T07:52:59.845Z,100.00
2022-10-01T07:55:28.195Z,100.00
2022-10-01T07:57:55.435Z,100.00
2022-10-01T08:00:24.064Z,100.00
2022-10-01T08:02:53.535Z,100.00
2022-10-01T08:05:22.084Z,100.00
2022-10-01T08:07:49.223Z,100.00
2022-10-01T08:10:18.437Z,100.00
2022-10-01T08:12:46.043Z,100.00
2022-10-01T08:15:15.434Z,99.78
2022-10-01T08:17:42.484Z,99.77
2022-10-01T08:20:11.794Z,99.59
2022-10-01T08:22:41.917Z,99.49
2022-10-01T08:25:09.531Z,98.96
2022-10-01T08:27:36.615Z,98.92
2022-10-01T08:30:03.707Z,98.81
2022-10-01T08:32:31.136Z,99.59
2022-10-01T08:34:58.973Z,99.40
2022-10-01T08:37:29.127Z,99.28
2022-10-01T08:39:56.600Z,99.21
2022-10-01T08:42:26.007Z,99.27
2022-10-01T08:44:56.071Z,99.24
2022-10-01T08:47:31.258Z,99.08
2022-10-01T08:50:03.056Z,99.01
2022-10-01T08:52:40.092Z,98.48
2022-10-01T08:55:14.324Z,98.51
2022-10-01T08:57:55.336Z,98.90
2022-10-01T09:00:22.091Z,98.74
2022-10-01T09:02:49.272Z,98.23
2022-10-01T09:05:36.747Z,98.28
2022-10-01T09:08:21.442Z,97.69
2022-10-01T09:11:01.968Z,97.74
2022-10-01T09:13:50.083Z,97.85
2022-10-01T09:16:30.671Z,97.04
2022-10-01T09:19:23.041Z,96.34
2022-10-01T09:21:57.408Z,95.87
2022-10-01T09:24:30.439Z,95.66
2022-10-01T09:26:57.343Z,95.23
2022-10-01T09:29:36.007Z,95.14
2022-10-01T09:32:05.898Z,94.89
2022-10-01T09:34:39.825Z,94.81
2022-10-01T09:37:27.523Z,94.81
2022-10-01T09:40:25.993Z,94.52
2022-10-01T09:42:52.708Z,94.38
2022-10-01T09:45:22.231Z,94.77
2022-10-01T09:47:51.694Z,94.58
2022-10-01T09:50:34.314Z,94.33
2022-10-01T09:53:01.399Z,94.24
2022-10-01T09:55:39.105Z,94.27
2022-10-01T09:58:14.723Z,94.36
2022-10-01T10:00:42.207Z,94.04
2022-10-01T10:03:08.821Z,94.36
2022-10-01T10:05:46.609Z,94.69
2022-10-01T10:08:23.842Z,94.09
2022-10-01T10:11:01.842Z,94.11
2022-10-01T10:13:40.949Z,94.16
2022-10-01T10:16:27.411Z,93.90
2022-10-01T10:18:57.758Z,93.80
2022-10-01T10:21:28.791Z,93.71
2022-10-01T10:23:59.055Z,93.69
2022-10-01T10:26:29.533Z,93.47
2022-10-01T10:28:58.782Z,93.37
2022-10-01T10:31:36.957Z,93.10
2022-10-01T10:34:08.124Z,93.06
2022-10-01T10:36:36.766Z,93.00
2022-10-01T10:39:06.215Z,92.96
2022-10-01T10:41:34.471Z,92.83
2022-10-01T10:44:04.418Z,92.50
2022-10-01T10:46:39.942Z,92.08
2022-10-01T10:49:18.572Z,91.36
2022-10-01T10:51:49.283Z,91.26
2022-10-01T10:54:20.768Z,91.64
2022-10-01T10:57:02.508Z,92.21
2022-10-01T10:59:31.821Z,91.88
2022-10-01T11:02:04.328Z,91.94
2022-10-01T11:04:39.763Z,91.54
2022-10-01T11:07:06.989Z,92.44
2022-10-01T11:09:38.960Z,91.97
2022-10-01T11:12:11.512Z,93.98
2022-10-01T11:15:20.908Z,92.58
2022-10-01T11:18:09.297Z,93.79
2022-10-01T11:20:50.106Z,98.52
2022-10-01T11:23:22.559Z,99.51
2022-10-01T11:26:03.242Z,100.00
2022-10-01T11:28:37.534Z,100.00
2022-10-01T11:31:24.861Z,100.00
2022-10-01T11:34:20.627Z,100.00
2022-10-01T11:37:16.342Z,100.00
2022-10-01T11:39:44.887Z,100.00
2022-10-01T11:42:16.496Z,100.00
2022-10-01T11:44:51.044Z,100.00
2022-10-01T11:47:28.677Z,100.00
2022-10-01T11:50:00.637Z,100.00
2022-10-01T11:52:32.590Z,100.00
2022-10-01T11:55:27.148Z,100.00
2022-10-01T11:58:24.915Z,100.00
2022-10-01T12:01:03.333Z,100.00
2022-10-01T12:03:38.107Z,100.00
2022-10-01T12:06:09.348Z,100.00
2022-10-01T12:08:37.536Z,100.00
2022-10-01T12:11:27.282Z,100.00
2022-10-01T12:14:06.175Z,100.00
2022-10-01T12:16:42.983Z,100.00
2022-10-01T12:19:24.997Z,100.00
2022-10-01T12:22:05.178Z,100.00
2022-10-01T12:24:45.127Z,100.00
2022-10-01T12:27:26.284Z,100.00
2022-10-01T12:30:18.308Z,100.00
2022-10-01T12:32:56.903Z,100.00
2022-10-01T12:35:49.371Z,100.00
2022-10-01T12:38:24.837Z,100.00
2022-10-01T12:41:17.484Z,100.00
2022-10-01T12:43:50.252Z,100.00
2022-10-01T12:46:27.142Z,100.00
2022-10-01T12:49:15.686Z,100.00
2022-10-01T12:51:53.023Z,100.00
2022-10-01T12:55:06.544Z,100.00
2022-10-01T12:57:45.107Z,100.00
2022-10-01T13:00:18.438Z,100.00
2022-10-01T13:02:59.981Z,100.00
2022-10-01T13:05:38.541Z,100.00
2022-10-01T13:08:21.623Z,100.00
2022-10-01T13:11:00.369Z,100.00
2022-10-01T13:13:33.485Z,100.00
2022-10-01T13:16:12.850Z,100.00
2022-10-01T13:19:15.855Z,100.00
2022-10-01T13:21:45.353Z,100.00
2022-10-01T13:24:26.732Z,100.00
2022-10-01T13:27:04.419Z,100.00
2022-10-01T13:29:46.444Z,100.00
2022-10-01T13:32:34.470Z,100.00
2022-10-01T13:35:21.102Z,100.00
2022-10-01T13:37:47.523Z,100.00
2022-10-01T13:40:22.831Z,100.00
2022-10-01T13:42:50.869Z,100.00
2022-10-01T13:45:43.168Z,100.00
2022-10-01T13:48:26.247Z,100.00
2022-10-01T13:51:03.480Z,100.00
2022-10-01T13:53:33.305Z,100.00
2022-10-01T13:56:00.531Z,100.00
2022-10-01T13:58:29.967Z,100.00
2022-10-01T14:00:59.144Z,100.00
2022-10-01T14:03:50.371Z,100.00
2022-10-01T14:06:27.696Z,100.00
2022-10-01T14:09:05.231Z,100.00
2022-10-01T14:11:54.408Z,100.00
2022-10-01T14:14:46.015Z,100.00
2022-10-01T14:17:13.841Z,100.00
2022-10-01T14:19:50.809Z,100.00
2022-10-01T14:22:23.290Z,100.00
2022-10-01T14:25:22.205Z,100.00
2022-10-01T14:28:01.711Z,100.00
2022-10-01T14:30:45.074Z,100.00
2022-10-01T14:33:39.101Z,100.00
2022-10-01T14:36:32.287Z,100.00
2022-10-01T14:39:14.027Z,100.00
2022-10-01T14:41:40.944Z,100.00
2022-10-01T14:44:22.599Z,100.00
2022-10-01T14:46:50.694Z,100.00
2022-10-01T14:49:26.769Z,100.00
2022-10-01T14:51:59.871Z,100.00
2022-10-01T14:54:27.352Z,100.00
2022-10-01T14:56:54.711Z,100.00
2022-10-01T14:59:35.442Z,100.00
2022-10-01T15:02:15.999Z,100.00
2022-10-01T15:04:50.549Z,100.00
2022-10-01T15:07:18.115Z,100.00
2022-10-01T15:09:45.505Z,100.00
2022-10-01T15:12:14.348Z,100.00
2022-10-01T15:14:42.447Z,100.00
2022-10-01T15:17:19.025Z,100.00
2022-10-01T15:19:47.193Z,100.00
2022-10-01T15:22:15.172Z,100.00
2022-10-01T15:24:43.151Z,100.00
2022-10-01T15:27:12.136Z,100.00
2022-10-01T15:29:40.092Z,100.00
2022-10-01T15:32:07.681Z,100.00
2022-10-01T15:34:35.098Z,100.00
2022-10-01T15:37:02.482Z,100.00
2022-10-01T15:39:34.910Z,100.00
2022-10-01T15:42:08.784Z,100.00
2022-10-01T15:44:41.269Z,100.00
2022-10-01T15:47:19.905Z,100.00
2022-10-01T15:50:13.623Z,100.00
2022-10-01T15:52:55.707Z,100.00
2022-10-01T15:55:46.681Z,100.00
2022-10-01T15:58:35.048Z,100.00
2022-10-01T16:01:11.129Z,100.00
2022-10-01T16:03:49.323Z,100.00
2022-10-01T16:06:24.006Z,100.00
2022-10-01T16:08:53.624Z,100.00
2022-10-01T16:11:24.050Z,100.00
2022-10-01T16:13:52.594Z,100.00
2022-10-01T16:16:25.036Z,100.00
2022-10-01T16:19:19.387Z,100.00
2022-10-01T16:22:18.652Z,100.00
2022-10-01T16:24:50.909Z,100.00
2022-10-01T16:27:20.462Z,100.00
2022-10-01T16:29:59.091Z,100.00
2022-10-01T16:32:29.119Z,100.00
2022-10-01T16:35:19.766Z,100.00
2022-10-01T16:37:49.511Z,100.00
2022-10-01T16:40:18.006Z,100.00
2022-10-01T16:42:46.401Z,100.00
2022-10-01T16:45:15.821Z,100.00
2022-10-01T16:47:42.753Z,100.00
2022-10-01T16:50:15.719Z,100.00
2022-10-01T16:52:42.960Z,100.00
2022-10-01T16:55:26.000Z,100.00
2022-10-01T16:57:56.816Z,100.00
2022-10-01T17:00:25.747Z,100.00
2022-10-01T17:02:53.393Z,100.00
2022-10-01T17:05:32.544Z,100.00
2022-10-01T17:08:01.159Z,100.00
2022-10-01T17:10:30.963Z,100.00
2022-10-01T17:12:59.377Z,100.00
2022-10-01T17:15:26.899Z,100.00
2022-10-01T17:17:54.620Z,100.00
2022-10-01T17:20:22.076Z,100.00
2022-10-01T17:22:49.181Z,100.00
2022-10-01T17:25:24.397Z,100.00
2022-10-01T17:27:51.023Z,100.00
2022-10-01T17:30:17.940Z,100.00
2022-10-01T17:32:44.803Z,100.00
2022-10-01T17:35:13.000Z,100.00
2022-10-01T17:37:40.365Z,100.00
2022-10-01T17:40:08.250Z,100.00
2022-10-01T17:42:35.622Z,100.00
2022-10-01T17:45:04.483Z,100.00
2022-10-01T17:47:31.212Z,100.00
2022-10-01T17:49:57.848Z,100.00
2022-10-01T17:52:24.338Z,100.00
2022-10-01T17:54:50.753Z,100.00
2022-10-01T17:57:17.276Z,100.00
2022-10-01T17:59:43.712Z,100.00
2022-10-01T18:02:36.544Z,100.00
2022-10-01T18:04:59.036Z,100.00
2022-10-01T18:07:26.352Z,100.00
2022-10-01T18:09:53.808Z,100.00
2022-10-01T18:12:20.275Z,100.00
2022-10-01T18:14:46.848Z,100.00
2022-10-01T18:17:13.247Z,100.00
2022-10-01T18:19:53.478Z,100.00
2022-10-01T18:22:20.976Z,100.00
2022-10-01T18:24:47.544Z,100.00
2022-10-01T18:27:14.166Z,100.00
2022-10-01T18:29:40.792Z,100.00
2022-10-01T18:32:21.308Z,100.00
2022-10-01T18:35:00.820Z,100.00
2022-10-01T18:37:46.536Z,100.00
2022-10-01T18:40:18.347Z,100.00
2022-10-01T18:42:49.566Z,100.00
2022-10-01T18:45:50.365Z,100.00
2022-10-01T18:48:35.576Z,100.00
2022-10-01T18:51:18.891Z,100.00
2022-10-01T18:54:13.144Z,100.00
2022-10-01T18:56:53.451Z,100.00
2022-10-01T18:59:31.335Z,100.00
2022-10-01T19:02:31.165Z,100.00
2022-10-01T19:05:31.192Z,100.00
2022-10-01T19:08:03.815Z,100.00
2022-10-01T19:10:36.406Z,100.00
2022-10-01T19:13:05.734Z,100.00
2022-10-01T19:16:06.338Z,100.00
2022-10-01T19:18:38.744Z,100.00
2022-10-01T19:21:19.491Z,100.00
2022-10-01T19:24:07.149Z,100.00
2022-10-01T19:26:43.146Z,100.00
2022-10-01T19:29:43.139Z,100.00
2022-10-01T19:32:17.679Z,100.00
2022-10-01T19:34:57.972Z,100.00
2022-10-01T19:37:33.677Z,100.00
2022-10-01T19:40:13.758Z,100.00
2022-10-01T19:42:46.829Z,100.00
2022-10-01T19:45:31.996Z,100.00
2022-10-01T19:48:12.944Z,100.00
2022-10-01T19:50:44.374Z,100.00
2022-10-01T19:53:29.234Z,100.00
2022-10-01T19:55:59.704Z,100.00
2022-10-01T19:58:26.812Z,100.00
2022-10-01T20:00:58.601Z,100.00
2022-10-01T20:03:27.927Z,100.00
2022-10-01T20:06:03.527Z,100.00
2022-10-01T20:08:38.595Z,100.00
2022-10-01T20:11:18.593Z,100.00
2022-10-01T20:14:35.313Z,100.00
2022-10-01T20:17:06.471Z,100.00
2022-10-01T20:19:44.987Z,100.00
2022-10-01T20:22:52.540Z,100.00
2022-10-01T20:25:39.217Z,100.00
2022-10-01T20:28:10.734Z,100.00
2022-10-01T20:30:53.187Z,100.00
2022-10-01T20:33:43.279Z,100.00
2022-10-01T20:36:23.317Z,100.00
2022-10-01T20:38:55.025Z,100.00
2022-10-01T20:41:24.004Z,100.00
2022-10-01T20:43:55.525Z,100.00
2022-10-01T20:46:40.232Z,100.00
2022-10-01T20:49:32.763Z,100.00
2022-10-01T20:52:06.312Z,100.00
2022-10-01T20:54:38.586Z,100.00
2022-10-01T20:57:38.095Z,100.00
2022-10-01T21:00:18.771Z,100.00
2022-10-01T21:02:59.164Z,100.00
2022-10-01T21:05:33.280Z,100.00
2022-10-01T21:08:05.119Z,100.00
2022-10-01T21:10:43.272Z,100.00
2022-10-01T21:13:12.411Z,100.00
2022-10-01T21:15:57.948Z,100.00
2022-10-01T21:18:38.945Z,100.00
2022-10-01T21:21:29.363Z,100.00
2022-10-01T21:23:59.555Z,100.00
2022-10-01T21:26:48.844Z,100.00
2022-10-01T21:29:33.969Z,100.00
2022-10-01T21:32:38.047Z,100.00
2022-10-01T21:35:19.630Z,100.00
2022-10-01T21:38:18.857Z,100.00
2022-10-01T21:41:04.299Z,100.00
2022-10-01T21:44:11.051Z,100.00
2022-10-01T21:47:05.732Z,100.00
2022-10-01T21:49:41.186Z,100.00
2022-10-01T21:52:20.667Z,100.00
2022-10-01T21:54:54.821Z,100.00
2022-10-01T21:57:51.442Z,100.00
2022-10-01T22:00:26.749Z,100.00
2022-10-01T22:03:14.057Z,100.00
2022-10-01T22:06:01.755Z,100.00
2022-10-01T22:09:01.698Z,100.00
2022-10-01T22:11:33.389Z,100.00
2022-10-01T22:14:21.150Z,100.00
2022-10-01T22:16:57.517Z,100.00
2022-10-01T22:19:28.657Z,100.00
2022-10-01T22:22:03.229Z,100.00
2022-10-01T22:24:39.408Z,100.00
2022-10-01T22:27:19.573Z,100.00
2022-10-01T22:29:56.504Z,100.00
2022-10-01T22:32:25.958Z,100.00
2022-10-01T22:34:57.844Z,100.00
2022-10-01T22:37:56.069Z,100.00
2022-10-01T22:40:31.550Z,100.00
2022-10-01T22:43:07.053Z,100.00
2022-10-01T22:45:53.814Z,100.00
2022-10-01T22:48:38.012Z,100.00
2022-10-01T22:51:13.528Z,100.00
2022-10-01T22:53:52.067Z,100.00
2022-10-01T22:56:27.531Z,100.00
2022-10-01T22:59:22.706Z,100.00
2022-10-01T23:02:12.152Z,100.00
2022-10-01T23:04:51.100Z,100.00
2022-10-01T23:07:30.207Z,100.00
2022-10-01T23:10:27.867Z,100.00
2022-10-01T23:13:12.917Z,100.00
2022-10-01T23:15:54.979Z,100.00
2022-10-01T23:18:40.042Z,100.00
2022-10-01T23:21:29.710Z,100.00
2022-10-01T23:24:20.703Z,100.00
2022-10-01T23:27:05.613Z,100.00
2022-10-01T23:29:41.047Z,100.00
2022-10-01T23:32:39.722Z,100.00
2022-10-01T23:35:17.107Z,100.00
2022-10-01T23:37:51.700Z,100.00
2022-10-01T23:40:21.076Z,100.00
2022-10-01T23:43:03.407Z,100.00
2022-10-01T23:45:48.051Z,100.00
2022-10-01T23:48:25.381Z,100.00
2022-10-01T23:51:30.790Z,100.00
2022-10-01T23:54:26.662Z,100.00
2022-10-01T23:57:00.295Z,100.00
2022-10-01T23:59:44.688Z,100.00
